New Fortress Energy (NFE) Institutional Ownership

$26.72
+0.64 (+2.45%)
(As of 05/17/2024 ET)

Institutional Ownership Changes (13F Filings) for New Fortress Energy (NASDAQ:NFE)

Current
Institutional Ownership
Percentage
58.61%
Number of
Institutional Buyers
(last 12 months)
132
Total
Institutional Inflows
(last 12 months)
$724.46M
Number of
Institutional Sellers
(last 12 months)
57
Total
Institutional Outflows
(last 12 months)
$123.90M
Get NFE Insider Trade Alerts

Want to know when executives and insiders are buying or selling New Fortress Energy stock? Sign up for InsiderTrades.com's daily newsletter to get the latest insider transactions delivered to your inbox daily.

Skip Chart & View Institutional Buying and Selling Data

NFE Institutional Buying and Selling by Quarter

New Fortress Energy Major Shareholders & Ownership History

Reporting DateMajor Shareholder NameShares HeldMarket Value% of PortfolioQuarterly Change in SharesOwnership in CompanyDetails
5/17/2024 Comerica Bank27,445$840K0.0%+1,775.9%0.013%
5/17/2024 Tidal Investments LLC10,297$315K0.0%+10.9%0.005%
5/16/2024 California State Teachers Retirement System62,165$1.90M0.0%-5.2%0.030%
5/16/2024 Janus Henderson Group PLC88,668$2.71M0.0%+187.5%0.043%
5/16/2024 Bayesian Capital Management LP32,422$992K0.1%+42.1%0.016%
5/15/2024 Public Employees Retirement System of Ohio24,784$758K0.0%-8.6%0.012%
5/15/2024 Price T Rowe Associates Inc. MD33,824$1.04M0.0%+6.4%0.016%
5/15/2024 Beck Capital Management LLC91,512$2.80M0.8%-27.0%0.045%
5/15/2024 Huber Capital Management LLC266,666$8.16M1.8%-34.4%0.130%
5/15/2024 Gabelli Funds LLC23,500$719K0.0%-9.6%0.011%
5/15/2024 Gamco Investors INC. ET AL24,293$743K0.0%+135.9%0.012%
5/14/2024 Capital World Investors15,182,319$464.43M0.1%+1.5%7.405%
5/14/2024 EntryPoint Capital LLC6,741$206K0.2%N/A0.003%
5/14/2024 Nokomis Capital L.L.C.215,749$6.60M2.2%N/A0.105%
5/10/2024 Vanguard Group Inc.8,477,480$259.33M0.0%-0.2%4.135%
5/10/2024 Nicolet Advisory Services LLC8,951$270K0.0%-25.1%0.004%
5/10/2024 M&G Plc1,663,502$51.57M0.3%N/A0.811%
5/9/2024 Blair William & Co. IL43,290$1.32M0.0%+35.8%0.021%
5/9/2024 State Board of Administration of Florida Retirement System24,897$733K0.0%-19.8%0.012%
5/8/2024 William Blair Investment Management LLC8,916,242$272.75M0.7%+31.0%4.349%
5/7/2024 Meeder Asset Management Inc.3,093$95K0.0%N/A0.002%
5/7/2024 Sei Investments Co.47,887$1.47M0.0%+2.8%0.023%
5/7/2024 Empowered Funds LLC14,345$439K0.0%-4.6%0.007%
5/6/2024 Quantbot Technologies LP9,542$292K0.0%N/A0.005%
5/3/2024 Wellington Shields & Co. LLC6,066$186K0.1%+34.1%0.003%
5/3/2024 GSA Capital Partners LLP14,166$433K0.0%N/A0.007%
5/1/2024 Capstone Investment Advisors LLC15,301$468K0.0%N/A0.007%
5/1/2024 BNP Paribas Financial Markets89,222$2.73M0.0%-11.3%0.044%
4/30/2024 Kailix Advisors LLC1,969,453$60.25M35.2%+83.6%0.961%
4/30/2024Commonwealth Equity Services LLC20,720$634K0.0%-15.5%0.010%
4/29/2024 Benjamin F. Edwards & Company Inc.1,387$42K0.0%+563.6%0.001%
4/26/2024 Pinnacle Associates Ltd.94,133$2.88M0.0%-3.8%0.046%
4/25/2024 Aubrey Capital Management Ltd35,150$1.08M0.4%-11.7%0.017%
4/24/2024 CUSHING ASSET MANAGEMENT LP dba NXG INVESTMENT MANAGEMENT176,000$5.38M0.4%+151.4%0.086%
4/23/2024 Fifth Third Bancorp2,000$61K0.0%-60.0%0.001%
4/20/2024 Maryland State Retirement & Pension System59,765$1.83M0.0%+1.5%0.029%
3/29/2024 Kapitalo Investimentos Ltda3,141$119K0.0%N/A0.002%
3/27/2024 Nomura Holdings Inc.111,494$4.21M0.0%N/A0.054%
3/11/2024 Vanguard Group Inc.8,493,285$320.45M0.0%+0.1%4.142%
3/1/2024 Electron Capital Partners LLC1,322,340$49.89M2.1%+9.4%0.645%
Elon’s New Device is About to Shock the World (Ad)

Using this device you see above… Elon Musk just tested a new type of A.I. that according to Wired Magazine will usher in… “The next step in human evolution.”

Click here to see the details because there’s a lot of money at stake.
2/15/2024 Palogic Value Management L.P.75,000$2.83M1.3%-28.6%0.037%
2/15/2024 HITE Hedge Asset Management LLC1,577,747$59.53M6.3%-43.8%0.770%
2/14/2024 Continuum Advisory LLC57,436$2.17M0.3%+18.9%0.028%
2/14/2024 Pinnacle Holdings LLC55,100$2.08M0.9%+37.1%0.027%
2/14/2024 Tortoise Index Solutions LLC129,453$4.88M0.9%+5.1%0.063%
2/14/2024 Advanced Portfolio Management LLC45,000$1.70M1.8%-43.8%0.022%
2/14/2024 Nomura Holdings Inc.111,494$4.21M0.0%N/A0.054%
2/13/2024 American Assets Investment Management LLC15,788$596K0.1%N/A0.008%
2/13/2024 Gabelli Funds LLC26,000$981K0.0%-51.9%0.013%
2/13/2024 Capital World Investors14,964,622$564.62M0.1%+8.3%7.299%
2/12/2024 Boulder Hill Capital Management LP17,800$672K0.4%N/A0.009%
2/12/2024 Pingora Partners LLC12,835$484K0.4%N/A0.006%
2/12/2024 Lumbard & Kellner LLC171,662$6.48M3.7%+65.5%0.084%
2/12/2024 Hsbc Holdings PLC20,088$761K0.0%N/A0.010%
2/9/2024 Primecap Management Co. CA3,438,300$129.73M0.1%+553.0%1.677%
2/9/2024 Advisory Services Network LLC13,531$511K0.0%-49.4%0.007%
2/9/2024 Capital Management Associates NY20,000$755K1.0%+53.8%0.010%
2/9/2024 Franklin Resources Inc.137,995$5.21M0.0%+5.2%0.067%
2/9/2024 Wells Fargo & Company MN488,205$18.42M0.0%-5.9%0.238%
2/9/2024 Norges Bank627,020$23.66M0.0%N/A0.306%
2/8/2024M&G Investment Management Ltd.1,537,323$58.42M0.3%+70.3%0.750%
2/7/2024 Dimensional Fund Advisors LP1,024,178$38.65M0.0%+21.2%0.500%
2/7/2024 AGF Management Ltd.235,629$8.89M0.1%-4.3%0.115%
2/7/2024 BNP Paribas Financial Markets100,589$3.80M0.0%-24.4%0.049%
2/7/2024 VisionPoint Advisory Group LLC43,529$1.64M0.6%-3.4%0.021%
2/6/2024 Charles Schwab Investment Management Inc.408,137$15.40M0.0%+4.1%0.199%
2/6/2024 Maryland State Retirement & Pension System58,877$2.22M0.0%+1.3%0.029%
2/6/2024 Nkcfo LLC10,000$377K0.2%N/A0.005%
2/6/2024 M&T Bank Corp13,941$526K0.0%+67.9%0.007%
2/6/2024 Amalgamated Bank13,130$495K0.0%-5.0%0.006%
2/6/2024 Swiss National Bank121,200$4.57M0.0%-10.4%0.059%
2/6/2024 New York Life Investment Management LLC9,397$355K0.0%+18.3%0.005%
2/5/2024 Victory Capital Management Inc.16,103$608K0.0%+21.5%0.008%
2/5/2024 Kailix Advisors LLC1,072,782$40.48M22.7%-11.5%0.523%
2/5/2024 Aubrey Capital Management Ltd39,804$1.53M0.6%-14.4%0.019%
2/2/2024 Headlands Technologies LLC6,221$235K0.1%-27.4%0.003%
2/2/2024 O Brien Greene & Co. Inc15,015$567K0.2%+10.4%0.007%
2/2/2024 Alaska Permanent Fund Corp77,997$2.94M0.0%-2.3%0.038%
2/1/2024 Linden Thomas Advisory Services LLC50,217$1.90M0.4%+3.2%0.024%
2/1/2024 New York State Common Retirement Fund63,352$2.39M0.0%-18.1%0.031%
2/1/2024 Jennison Associates LLC339,230$12.80M0.0%-0.6%0.165%
2/1/2024 CWM LLC1,602$60K0.0%-24.8%0.001%
1/31/2024 abrdn plc185,478$7.00M0.0%-1.1%0.090%
1/31/2024 Xponance Inc.8,378$316K0.0%-5.2%0.004%
1/30/2024 Zurcher Kantonalbank Zurich Cantonalbank14,081$531K0.0%+5.4%0.007%
1/30/2024 Mackenzie Financial Corp80,077$3.02M0.0%N/A0.039%
1/29/2024 Friedenthal Financial18,284$690K0.5%N/A0.009%
1/25/2024 Midwest Financial Group LLC6,304$238K0.2%-17.3%0.003%
1/24/2024 Alpine Woods Capital Investors LLC20,000$755K0.1%+42.9%0.010%
1/24/2024 Arizona State Retirement System17,195$649K0.0%-1.8%0.008%
The ONE AI Stock to own now. (It’s not Nvidia.) (Ad)

Don’t panic — you haven’t missed the boat on AI. In fact, it has barely launched. Sure, the early stages of this boom were big … But I believe the real wealth in AI has yet to be made …

Click here to see the presentation now.
1/19/2024 Pinnacle Associates Ltd.97,895$3.69M0.1%-2.6%0.048%
1/18/2024 CUSHING ASSET MANAGEMENT LP dba NXG INVESTMENT MANAGEMENT70,000$2.64M0.2%-57.7%0.034%
1/16/2024 Raymond James Financial Services Advisors Inc.5,573$210K0.0%N/A0.003%
1/16/2024 Raymond James & Associates20,444$771K0.0%-27.3%0.010%
1/5/2024 Exchange Traded Concepts LLC130,068$4.91M0.1%+4.8%0.063%
12/19/2023 Public Employees Retirement System of Ohio26,379$865K0.0%-10.0%0.013%
12/18/2023 Vanguard Group Inc.8,481,836$278.04M0.0%+41.4%4.137%
12/6/2023 VisionPoint Advisory Group LLC45,070$1.48M0.6%+34.7%0.022%
12/6/2023 Citigroup Inc.12,341$405K0.0%+9.7%0.006%
11/21/2023 Hohimer Wealth Management LLC46,651$1.53M0.4%+1.3%0.023%
(Data available from 1/1/2016 forward)

NFE Institutional Ownership - Frequently Asked Questions

Who are the largest shareholders of NFE shares?

During the previous two years, 268 institutional investors and hedge funds held shares of New Fortress Energy. The most heavily invested institutionals were Capital World Investors ($464.43M), William Blair Investment Management LLC ($272.75M), Vanguard Group Inc. ($259.33M), Federated Hermes Inc. ($144.29M), Encompass Capital Advisors LLC ($131.78M), Primecap Management Co. CA ($129.73M), and FMR LLC ($113.01M).Learn more on NFE's institutional investors.

What percentage of New Fortress Energy stock is owned by institutional investors?

58.61% of New Fortress Energy stock is owned by institutional investors. Learn more on NFE's institutional investor holdings.

Which institutional investors have been buying New Fortress Energy stock?

Of the 246 institutional investors that purchased New Fortress Energy stock in the last 24 months, the following investors and hedge funds have bought the highest volume of shares: William Blair Investment Management LLC ($5.24M), Primecap Management Co. CA ($2.94M), Point72 Asset Management L.P. ($2.51M), Vanguard Group Inc. ($2.49M), FMR LLC ($2.46M), Kailix Advisors LLC ($2.27M), and HITE Hedge Asset Management LLC ($1.84M).

How much institutional buying is happening at New Fortress Energy?

Institutional investors have bought a total of 41,135,911 shares in the last 24 months. This purchase volume represents approximately $1.44B in transactions.

Which New Fortress Energy major shareholders have been selling company stock?

Of the 95 institutional investors that sold New Fortress Energy stock in the last 24 months, the following investors and hedge funds have sold the highest volume of shares: HITE Hedge Asset Management LLC ($1.23M), Pacer Advisors Inc. ($998.95K), Encompass Capital Advisors LLC ($831.94K), PointState Capital LP ($751.00K), William Blair Investment Management LLC ($428.49K), abrdn plc ($415.76K), and Federated Hermes Inc. ($408.40K).

How much institutional selling is happening at New Fortress Energy?

Institutional investors have sold a total of 7,739,455 shares in the last 24 months. This volume of shares sold represents approximately $266.43M in transactions.


This page (NASDAQ:NFE) was last updated on 5/18/2024 by MarketBeat.com Staff

From Our Partners